Time;durP1;ratioP1;P1;durP2;ratioP2;P2;SDS_P1;SDS_P2;PMS_P1;PMS_P2;Temp;Humidity;BMP_temperature;BMP_pressure;BME280_temperature;BME280_humidity;BME280_pressure;Samples;Min_cycle;Max_cycle;Signal;HPM_P1;HPM_P2
2023/10/28 00:01:40;;;;;;;;;8.00;8.00;;;;;10.45;98.51;99378.63;4997044;28;10223;-69
2023/10/28 00:04:06;;;;;;;;;10.50;9.00;;;;;10.45;98.47;99381.31;4992299;28;10253;-68
2023/10/28 00:06:34;;;;;;;;;8.25;8.25;;;;;10.45;98.23;99375.94;5004833;28;10401;-69
2023/10/28 00:09:01;;;;;;;;;8.75;8.75;;;;;10.43;98.54;99372.66;4991794;28;10291;-69
2023/10/28 00:11:29;;;;;;;;;11.00;9.75;;;;;10.37;98.56;99385.16;4972190;28;10341;-69
2023/10/28 00:13:56;;;;;;;;;8.75;8.75;;;;;10.35;98.80;99376.47;4973003;28;10493;-69
2023/10/28 00:16:22;;;;;;;;;11.75;9.25;;;;;10.41;99.23;99377.41;4991503;28;10665;-69
2023/10/28 00:18:49;;;;;;;;;10.75;10.75;;;;;10.43;98.82;99374.53;4990595;28;10321;-68
2023/10/28 00:21:17;;;;;;;;;12.50;9.50;;;;;10.45;98.76;99373.25;4992353;28;10232;-69
2023/10/28 00:23:44;;;;;;;;;7.00;7.00;;;;;10.47;98.99;99381.91;5006850;28;10337;-69
2023/10/28 00:26:10;;;;;;;;;8.50;8.00;;;;;10.47;98.66;99383.78;4989454;28;10274;-69
2023/10/28 00:28:39;;;;;;;;;12.50;9.25;;;;;10.48;98.68;99380.03;4988235;28;10430;-70
2023/10/28 00:31:07;;;;;;;;;11.25;9.00;;;;;10.50;98.69;99381.44;4997408;28;10314;-69
2023/10/28 00:33:36;;;;;;;;;11.50;11.25;;;;;10.51;98.73;99379.56;4994527;28;11105;-68
2023/10/28 00:36:11;;;;;;;;;11.00;11.00;;;;;10.49;98.37;99377.13;4974783;28;10499;-69
2023/10/28 00:38:37;;;;;;;;;12.50;9.75;;;;;10.48;98.66;99382.72;4991467;28;10321;-67
2023/10/28 00:41:04;;;;;;;;;13.00;10.75;;;;;10.49;98.60;99381.66;4990499;28;10352;-69
2023/10/28 00:43:32;;;;;;;;;9.25;9.25;;;;;10.48;98.65;99382.72;4990528;28;10380;-69
2023/10/28 00:45:59;;;;;;;;;11.75;11.00;;;;;10.45;98.36;99380.47;4997223;28;10228;-67
2023/10/28 00:48:28;;;;;;;;;8.00;8.00;;;;;10.45;98.86;99385.84;4986359;28;11030;-69
2023/10/28 00:50:57;;;;;;;;;12.00;7.75;;;;;10.44;98.62;99381.53;4957701;28;10366;-69
2023/10/28 00:53:25;;;;;;;;;8.75;8.00;;;;;10.42;98.73;99389.03;4971045;28;10440;-68
2023/10/28 00:55:52;;;;;;;;;7.50;6.75;;;;;10.36;98.81;99388.88;5004296;28;10589;-69
2023/10/28 00:58:24;;;;;;;;;10.00;9.75;;;;;10.37;98.83;99389.69;4991551;28;10484;-68
2023/10/28 01:00:51;;;;;;;;;11.25;10.75;;;;;10.37;99.21;99390.53;4978976;28;10383;-68
2023/10/28 01:03:18;;;;;;;;;11.25;10.00;;;;;10.37;99.06;99395.91;4986753;28;10304;-69
2023/10/28 01:05:45;;;;;;;;;8.25;8.25;;;;;10.38;98.88;99386.78;4996055;28;10327;-68
2023/10/28 01:08:12;;;;;;;;;12.25;12.25;;;;;10.33;98.60;99388.50;4990640;28;10290;-68
2023/10/28 01:10:40;;;;;;;;;11.00;9.25;;;;;10.32;98.96;99393.06;4972356;28;10401;-68
2023/10/28 01:13:08;;;;;;;;;10.00;10.00;;;;;10.35;99.27;99391.78;4975817;28;10254;-68
2023/10/28 01:15:35;;;;;;;;;11.00;9.00;;;;;10.34;99.13;99387.47;4991749;28;11020;-69
2023/10/28 01:18:02;;;;;;;;;11.00;8.00;;;;;10.36;99.25;99388.06;4969707;28;10175;-68
2023/10/28 01:20:29;;;;;;;;;13.50;12.00;;;;;10.33;98.75;99389.34;4987181;28;10179;-69
2023/10/28 01:22:58;;;;;;;;;12.00;10.00;;;;;10.32;99.17;99393.06;4980464;28;10208;-68
2023/10/28 01:25:25;;;;;;;;;10.75;10.00;;;;;10.32;99.18;99389.56;4990192;28;10314;-69
2023/10/28 01:27:53;;;;;;;;;12.25;10.75;;;;;10.30;99.18;99387.09;4973649;28;10308;-68
2023/10/28 01:30:20;;;;;;;;;12.00;9.50;;;;;10.32;99.24;99382.31;4976863;28;10309;-68
2023/10/28 01:32:46;;;;;;;;;13.00;12.00;;;;;10.32;99.01;99386.88;4982641;28;10083;-69
2023/10/28 01:35:13;;;;;;;;;9.00;8.00;;;;;10.31;99.16;99380.66;4995689;28;10231;-68
2023/10/28 01:37:41;;;;;;;;;7.75;7.75;;;;;10.32;99.39;99385.00;4982490;28;10307;-69
2023/10/28 01:40:14;;;;;;;;;8.25;7.00;;;;;10.33;99.69;99373.22;4971874;28;10358;-69
2023/10/28 01:42:45;;;;;;;;;8.00;8.00;;;;;10.35;99.40;99370.28;4971805;28;10214;-69
2023/10/28 01:45:14;;;;;;;;;12.25;9.75;;;;;10.35;99.15;99370.28;4965520;28;10224;-69
2023/10/28 01:47:42;;;;;;;;;12.75;8.50;;;;;10.37;99.12;99374.41;4992910;28;10351;-69
2023/10/28 01:50:12;;;;;;;;;12.00;9.50;;;;;10.36;99.09;99367.34;4973516;28;10958;-69
2023/10/28 01:52:40;;;;;;;;;7.50;7.00;;;;;10.38;98.89;99373.34;4990928;28;10230;-69
2023/10/28 01:55:07;;;;;;;;;9.00;7.75;;;;;10.38;99.11;99369.81;4973486;28;10389;-69
2023/10/28 01:57:35;;;;;;;;;9.25;7.25;;;;;10.37;99.28;99370.84;4990436;28;10178;-69
2023/10/28 02:00:07;;;;;;;;;7.25;7.25;;;;;10.36;99.39;99364.66;4972807;28;10254;-69
2023/10/28 02:02:36;;;;;;;;;9.00;9.00;;;;;10.35;98.65;99367.59;4985457;28;10968;-68
2023/10/28 02:05:03;;;;;;;;;7.00;6.00;;;;;10.34;98.87;99368.66;5010268;28;10125;-69
2023/10/28 02:07:32;;;;;;;;;9.00;7.50;;;;;10.33;99.12;99373.22;4990491;28;10321;-68
2023/10/28 02:09:59;;;;;;;;;8.00;6.75;;;;;10.32;98.94;99370.72;4989371;28;10392;-69
2023/10/28 02:12:26;;;;;;;;;7.25;7.00;;;;;10.31;98.91;99369.91;4983254;28;10978;-68
2023/10/28 02:14:52;;;;;;;;;9.50;7.25;;;;;10.31;99.12;99369.91;4971416;28;10365;-69
2023/10/28 02:17:19;;;;;;;;;8.00;8.00;;;;;10.30;99.18;99364.78;4971404;28;10317;-69
2023/10/28 02:19:46;;;;;;;;;9.25;8.00;;;;;10.31;99.27;99374.47;4971399;28;11105;-69
2023/10/28 02:22:14;;;;;;;;;7.50;7.50;;;;;10.32;99.08;99366.16;4989682;28;11015;-68
2023/10/28 02:24:41;;;;;;;;;7.75;7.75;;;;;10.32;98.92;99366.16;4991897;28;10144;-69
2023/10/28 02:27:08;;;;;;;;;7.00;6.00;;;;;10.30;98.98;99357.53;4978480;28;10170;-69
2023/10/28 02:29:37;;;;;;;;;9.75;9.75;;;;;10.27;99.09;99363.34;4976595;28;10290;-69
2023/10/28 02:32:06;;;;;;;;;10.00;7.25;;;;;10.28;99.36;99364.97;4973226;28;10384;-68
2023/10/28 02:34:32;;;;;;;;;8.00;8.00;;;;;10.30;99.66;99364.78;4984897;28;10236;-69
2023/10/28 02:36:59;;;;;;;;;9.00;9.00;;;;;10.31;99.48;99363.72;4990343;28;10256;-69
2023/10/28 02:39:28;;;;;;;;;10.00;9.50;;;;;10.32;99.49;99357.28;4971942;28;10246;-68
2023/10/28 02:41:55;;;;;;;;;9.00;9.00;;;;;10.35;99.77;99365.72;4976664;28;10419;-69
2023/10/28 02:44:22;;;;;;;;;8.00;8.00;;;;;10.38;99.91;99367.97;4968701;28;10204;-69
2023/10/28 02:46:48;;;;;;;;;9.00;8.00;;;;;10.39;99.50;99361.53;4986989;28;10215;-69
2023/10/28 02:49:15;;;;;;;;;8.50;8.50;;;;;10.41;100.00;99358.59;4997964;28;10317;-69
2023/10/28 02:51:43;;;;;;;;;12.00;11.00;;;;;10.42;99.39;99367.50;4977571;28;10931;-68
2023/10/28 02:54:09;;;;;;;;;9.50;9.50;;;;;10.38;99.71;99359.88;4972869;28;10333;-68
2023/10/28 02:56:36;;;;;;;;;10.75;10.75;;;;;10.38;99.58;99357.19;4989449;28;10286;-68
2023/10/28 02:59:06;;;;;;;;;12.00;11.50;;;;;10.39;99.37;99361.53;4977555;28;10312;-69
2023/10/28 03:01:36;;;;;;;;;11.00;11.00;;;;;10.39;99.84;99363.41;4997610;28;10391;-69
2023/10/28 03:04:03;;;;;;;;;10.75;10.75;;;;;10.39;99.58;99361.53;4981774;28;10313;-69
2023/10/28 03:06:30;;;;;;;;;13.75;10.00;;;;;10.40;100.00;99362.34;4993133;28;10404;-68
2023/10/28 03:08:56;;;;;;;;;7.50;6.00;;;;;10.43;100.00;99371.81;4992782;28;10483;-69
2023/10/28 03:11:23;;;;;;;;;12.00;11.00;;;;;10.42;100.00;99360.25;4976443;28;10494;-69
2023/10/28 03:13:49;;;;;;;;;17.00;11.75;;;;;10.43;100.00;99366.44;4974706;28;10484;-67
2023/10/28 03:16:17;;;;;;;;;9.00;9.00;;;;;10.45;100.00;99364.34;4993570;28;10500;-68
2023/10/28 03:18:43;;;;;;;;;17.25;15.75;;;;;10.43;100.00;99361.06;4977717;28;10389;-68
2023/10/28 03:21:10;;;;;;;;;16.00;15.00;;;;;10.45;100.00;99369.72;4984264;28;11207;-67
2023/10/28 03:23:36;;;;;;;;;16.50;13.50;;;;;10.41;100.00;99363.97;4980196;28;10474;-68
2023/10/28 03:26:06;;;;;;;;;14.75;12.25;;;;;10.45;100.00;99364.34;4976613;28;10365;-67
2023/10/28 03:28:33;;;;;;;;;15.25;14.50;;;;;10.45;100.00;99364.34;4993021;28;10537;-69
2023/10/28 03:31:06;;;;;;;;;12.00;11.00;;;;;10.48;100.00;99369.25;4974029;28;10487;-70
2023/10/28 03:33:33;;;;;;;;;16.75;14.75;;;;;10.46;100.00;99369.50;4992066;28;10564;-67
2023/10/28 03:35:59;;;;;;;;;17.25;14.00;;;;;10.48;100.00;99356.63;4990243;28;10770;-68
2023/10/28 03:38:26;;;;;;;;;14.75;13.00;;;;;10.51;100.00;99374.19;4992263;28;10565;-70
2023/10/28 03:40:52;;;;;;;;;18.00;16.75;;;;;10.47;100.00;99364.94;5006400;28;10400;-68
2023/10/28 03:43:19;;;;;;;;;15.50;14.25;;;;;10.49;100.00;99357.44;4975343;28;10527;-70
2023/10/28 03:45:45;;;;;;;;;14.25;13.00;;;;;10.50;100.00;99365.31;4995919;28;10549;-70
2023/10/28 03:48:12;;;;;;;;;13.50;13.50;;;;;10.51;100.00;99360.75;4999511;28;10393;-70
2023/10/28 03:50:38;;;;;;;;;14.25;14.00;;;;;10.51;100.00;99369.63;4992594;28;10465;-68
2023/10/28 03:53:05;;;;;;;;;12.50;11.50;;;;;10.54;100.00;99358.41;4993168;28;10409;-70
2023/10/28 03:55:31;;;;;;;;;13.50;12.25;;;;;10.53;100.00;99361.31;4993120;28;10291;-68
2023/10/28 03:57:58;;;;;;;;;12.00;11.75;;;;;10.57;100.00;99371.41;4992523;28;10319;-69
2023/10/28 04:00:24;;;;;;;;;16.75;13.50;;;;;10.57;100.00;99365.19;4974127;28;10404;-68
2023/10/28 04:02:51;;;;;;;;;16.00;14.00;;;;;10.55;100.00;99362.75;4997296;28;10399;-70
2023/10/28 04:05:18;;;;;;;;;19.00;14.00;;;;;10.56;100.00;99367.06;4992044;28;10221;-69
2023/10/28 04:07:45;;;;;;;;;17.00;13.00;;;;;10.57;100.00;99370.56;4977216;28;10232;-69
2023/10/28 04:10:12;;;;;;;;;15.75;12.75;;;;;10.54;100.00;99366.47;5024595;23;10436;-70
2023/10/28 04:12:40;;;;;;;;;14.50;13.75;;;;;10.59;100.00;99366.59;5027356;28;11205;-69
2023/10/28 04:15:07;;;;;;;;;16.00;15.25;;;;;10.58;100.00;99361.47;5030124;28;10323;-70
2023/10/28 04:17:33;;;;;;;;;16.00;16.00;;;;;10.58;100.00;99359.59;5029404;28;10524;-69
2023/10/28 04:20:00;;;;;;;;;15.25;14.75;;;;;10.56;100.00;99355.47;5037565;28;10573;-69
2023/10/28 04:22:28;;;;;;;;;17.50;13.75;;;;;10.55;100.00;99359.22;5030991;28;10542;-70
2023/10/28 04:24:55;;;;;;;;;14.75;12.50;;;;;10.57;100.00;99365.19;5027594;28;10417;-69
2023/10/28 04:27:22;;;;;;;;;14.00;14.00;;;;;10.55;100.00;99359.22;5034189;28;10500;-69
2023/10/28 04:29:50;;;;;;;;;16.25;15.25;;;;;10.56;100.00;99358.16;5036796;28;10475;-69
2023/10/28 04:32:20;;;;;;;;;15.25;13.75;;;;;10.55;100.00;99359.22;5035773;28;11157;-69
2023/10/28 04:34:46;;;;;;;;;12.00;11.00;;;;;10.55;100.00;99368.13;5041108;28;10392;-69
2023/10/28 04:37:22;;;;;;;;;18.00;17.00;;;;;10.37;100.00;99363.63;5023822;28;10478;-70
2023/10/28 04:39:49;;;;;;;;;17.50;15.75;;;;;10.39;100.00;99366.91;5033331;28;10415;-69
2023/10/28 04:42:15;;;;;;;;;18.75;15.00;;;;;10.42;100.00;99372.88;5027962;28;10392;-69
2023/10/28 04:44:43;;;;;;;;;17.25;15.75;;;;;10.43;100.00;99355.69;5028208;28;10344;-68
2023/10/28 04:47:09;;;;;;;;;20.50;18.00;;;;;10.39;100.00;99355.31;5043140;28;10507;-69
2023/10/28 04:49:37;;;;;;;;;18.75;17.25;;;;;10.42;100.00;99351.38;5019510;28;11264;-68
2023/10/28 04:52:03;;;;;;;;;21.25;18.00;;;;;10.44;100.00;99351.94;5027231;28;10562;-69
2023/10/28 04:54:30;;;;;;;;;15.00;13.75;;;;;10.48;100.00;99353.13;5017109;28;10504;-68
2023/10/28 04:56:58;;;;;;;;;21.75;19.00;;;;;10.47;100.00;99356.88;5023388;28;10415;-69
2023/10/28 04:59:24;;;;;;;;;19.00;14.00;;;;;10.49;100.00;99346.69;5028381;28;10491;-69
2023/10/28 05:01:51;;;;;;;;;15.00;13.50;;;;;10.50;100.00;99348.34;5030777;28;10556;-69
2023/10/28 05:04:18;;;;;;;;;16.25;13.25;;;;;10.49;100.00;99350.22;5029152;28;10412;-69
2023/10/28 05:06:44;;;;;;;;;13.25;12.00;;;;;10.48;100.00;99339.66;5032171;28;10405;-69
2023/10/28 05:09:11;;;;;;;;;12.50;9.50;;;;;10.49;100.00;99341.31;5029501;28;10377;-69
2023/10/28 05:11:38;;;;;;;;;18.00;16.50;;;;;10.45;100.00;99340.97;5026667;28;10459;-69
2023/10/28 05:14:04;;;;;;;;;12.00;11.25;;;;;10.41;100.00;99331.69;5026826;28;10522;-70
2023/10/28 05:16:31;;;;;;;;;13.50;11.00;;;;;10.43;100.00;99334.97;5028724;28;10334;-69
2023/10/28 05:18:57;;;;;;;;;10.50;7.00;;;;;10.45;100.00;99332.91;5026306;28;10408;-69
2023/10/28 05:21:24;;;;;;;;;10.25;7.25;;;;;10.45;100.00;99334.75;5028866;28;10246;-69
2023/10/28 05:23:51;;;;;;;;;8.75;7.50;;;;;10.45;100.00;99340.13;5029104;28;10283;-68
2023/10/28 05:26:18;;;;;;;;;9.75;7.25;;;;;10.43;100.00;99339.53;5028703;28;10339;-70
2023/10/28 05:28:46;;;;;;;;;8.50;8.00;;;;;10.43;100.00;99331.47;5025086;28;10352;-70
2023/10/28 05:31:14;;;;;;;;;6.00;6.00;;;;;10.43;100.00;99337.69;5019733;28;10984;-70
2023/10/28 05:33:40;;;;;;;;;7.00;7.00;;;;;10.43;100.00;99337.69;5023896;28;10483;-69
2023/10/28 05:36:07;;;;;;;;;7.75;6.25;;;;;10.45;99.98;99338.28;5023059;28;11066;-68
2023/10/28 05:38:33;;;;;;;;;7.50;7.50;;;;;10.45;100.00;99338.28;5026078;28;10261;-69
2023/10/28 05:41:00;;;;;;;;;6.25;6.25;;;;;10.49;100.00;99335.91;5042304;28;10241;-68
2023/10/28 05:43:26;;;;;;;;;8.75;6.00;;;;;10.50;100.00;99340.28;5019528;28;10272;-69
2023/10/28 05:45:53;;;;;;;;;7.00;7.00;;;;;10.47;99.88;99346.94;5032444;28;10244;-69
2023/10/28 05:48:19;;;;;;;;;8.75;7.75;;;;;10.50;99.71;99337.59;5043470;28;11393;-70
2023/10/28 05:50:47;;;;;;;;;7.50;6.50;;;;;10.50;99.89;99345.66;5029079;28;10419;-68
2023/10/28 05:53:14;;;;;;;;;9.25;7.25;;;;;10.46;99.74;99341.78;5028617;28;10300;-69
2023/10/28 05:55:40;;;;;;;;;10.75;10.00;;;;;10.42;99.63;99338.72;5034579;28;10232;-68
2023/10/28 05:58:07;;;;;;;;;8.25;7.25;;;;;10.44;99.75;99349.25;5032180;28;10367;-68
2023/10/28 06:00:33;;;;;;;;;15.75;9.00;;;;;10.46;99.90;99347.97;5026921;28;10219;-69
2023/10/28 06:03:00;;;;;;;;;12.75;9.00;;;;;10.44;99.83;99347.38;5027069;28;10471;-69
2023/10/28 06:05:26;;;;;;;;;9.00;8.00;;;;;10.43;99.78;99339.53;5034486;28;10348;-68
2023/10/28 06:07:53;;;;;;;;;7.00;6.00;;;;;10.43;100.00;99345.75;5026630;28;10369;-69
2023/10/28 06:10:19;;;;;;;;;10.50;7.50;;;;;10.45;99.95;99349.03;5042597;28;10208;-69
2023/10/28 06:12:46;;;;;;;;;10.00;10.00;;;;;10.46;100.00;99342.59;5024030;28;10310;-69
2023/10/28 06:15:14;;;;;;;;;8.00;6.00;;;;;10.49;99.97;99344.84;5032264;28;11018;-70
2023/10/28 06:17:42;;;;;;;;;6.00;6.00;;;;;10.45;100.00;99340.97;5029688;28;10344;-68
2023/10/28 06:20:09;;;;;;;;;10.25;6.75;;;;;10.46;100.00;99339.09;5025477;28;10088;-68
2023/10/28 06:22:35;;;;;;;;;8.75;8.00;;;;;10.42;99.95;99343.28;5037986;28;10445;-69
2023/10/28 06:25:04;;;;;;;;;6.50;6.50;;;;;10.42;100.00;99343.28;5029413;28;10231;-69
2023/10/28 06:27:33;;;;;;;;;8.50;8.50;;;;;10.43;100.00;99344.94;5011705;28;10381;-70
2023/10/28 06:30:00;;;;;;;;;7.25;7.25;;;;;10.47;100.00;99351.50;5029723;28;10317;-69
2023/10/28 06:32:29;;;;;;;;;8.00;7.00;;;;;10.46;100.00;99350.66;5034544;28;10372;-70
2023/10/28 06:34:56;;;;;;;;;9.00;7.25;;;;;10.45;100.00;99340.13;5029461;28;10227;-69
2023/10/28 06:37:23;;;;;;;;;7.25;6.50;;;;;10.48;100.00;99347.75;5027314;28;10159;-69
2023/10/28 06:39:50;;;;;;;;;7.00;7.00;;;;;10.46;100.00;99347.16;5027124;28;10790;-70
2023/10/28 06:42:18;;;;;;;;;7.50;6.50;;;;;10.45;100.00;99356.25;5021367;28;10168;-68
2023/10/28 06:44:44;;;;;;;;;7.25;6.50;;;;;10.45;100.00;99343.66;5024218;28;10190;-69
2023/10/28 06:47:11;;;;;;;;;9.00;6.75;;;;;10.47;100.00;99346.09;5024917;28;10878;-69
2023/10/28 06:49:37;;;;;;;;;4.00;4.00;;;;;10.49;100.00;99357.44;5034038;28;10454;-68
2023/10/28 06:52:04;;;;;;;;;6.75;6.75;;;;;10.47;100.00;99351.50;5022112;28;10419;-69
2023/10/28 06:54:30;;;;;;;;;7.50;7.50;;;;;10.49;100.00;99358.28;5025474;28;10423;-69
2023/10/28 06:56:57;;;;;;;;;10.00;8.00;;;;;10.47;100.00;99357.69;5035415;28;10433;-69
2023/10/28 06:59:24;;;;;;;;;7.25;7.25;;;;;10.55;100.00;99359.22;5032997;28;10296;-69
2023/10/28 07:01:50;;;;;;;;;6.00;6.00;;;;;10.57;100.00;99357.97;5021375;28;10188;-69
2023/10/28 07:04:17;;;;;;;;;7.50;7.00;;;;;10.61;100.00;99359.13;5026372;28;10874;-69
2023/10/28 07:06:43;;;;;;;;;6.00;6.00;;;;;10.58;100.00;99354.22;5027352;28;10191;-69
2023/10/28 07:09:10;;;;;;;;;9.50;8.25;;;;;10.60;100.00;99365.53;5023951;28;10033;-69
2023/10/28 07:11:38;;;;;;;;;7.00;7.00;;;;;10.59;100.00;99372.00;5025026;28;10043;-68
2023/10/28 07:14:05;;;;;;;;;7.00;7.00;;;;;10.58;100.00;99366.84;5020148;28;10009;-68
2023/10/28 07:16:31;;;;;;;;;6.00;4.50;;;;;10.60;100.00;99364.72;5026153;28;10362;-69
2023/10/28 07:18:58;;;;;;;;;6.00;6.00;;;;;10.58;100.00;99362.28;5024767;28;10092;-69
2023/10/28 07:21:24;;;;;;;;;8.00;7.00;;;;;10.57;100.00;99362.50;5025011;28;10039;-68
2023/10/28 07:23:51;;;;;;;;;6.75;6.00;;;;;10.61;100.00;99371.75;5024388;28;10205;-69
2023/10/28 07:26:17;;;;;;;;;6.25;5.50;;;;;10.62;100.00;99366.16;5008334;28;10296;-69
2023/10/28 07:28:45;;;;;;;;;3.00;3.00;;;;;10.64;100.00;99358.66;5026030;28;10180;-69
2023/10/28 07:31:11;;;;;;;;;6.25;6.25;;;;;10.64;100.00;99357.84;5024731;28;10163;-69
2023/10/28 07:33:38;;;;;;;;;8.00;7.00;;;;;10.66;100.00;99363.81;5043066;28;9887;-70
2023/10/28 07:36:05;;;;;;;;;6.00;6.00;;;;;10.64;100.00;99366.72;5027445;28;9925;-69
2023/10/28 07:38:32;;;;;;;;;5.25;5.25;;;;;10.66;100.00;99371.91;5028451;28;9939;-69
2023/10/28 07:40:58;;;;;;;;;5.50;5.50;;;;;10.69;100.00;99368.72;5035043;28;9997;-69
2023/10/28 07:43:26;;;;;;;;;3.25;3.00;;;;;10.73;100.00;99371.78;5028043;28;10014;-69
2023/10/28 07:45:56;;;;;;;;;7.00;4.75;;;;;10.69;100.00;99367.91;5012310;28;10067;-68
2023/10/28 07:48:23;;;;;;;;;6.75;6.25;;;;;10.65;100.00;99383.69;5047011;28;10033;-68
2023/10/28 07:50:51;;;;;;;;;7.25;7.25;;;;;10.63;100.00;99378.56;5032528;28;10015;-69
2023/10/28 07:53:18;;;;;;;;;6.00;5.75;;;;;10.64;100.00;99369.41;5030678;28;10097;-69
2023/10/28 07:55:45;;;;;;;;;4.50;3.25;;;;;10.70;100.00;99380.34;5020243;28;10114;-70
2023/10/28 07:58:12;;;;;;;;;3.50;3.50;;;;;10.71;100.00;99380.09;5038483;28;10057;-68
2023/10/28 08:00:38;;;;;;;;;6.00;4.25;;;;;10.70;100.00;99383.03;5029354;28;9955;-69
2023/10/28 08:03:05;;;;;;;;;5.75;5.75;;;;;10.71;100.00;99381.97;5022935;28;10049;-69
2023/10/28 08:05:32;;;;;;;;;6.75;5.50;;;;;10.75;100.00;99381.28;5031826;28;10104;-69
2023/10/28 08:07:59;;;;;;;;;6.75;6.75;;;;;10.75;100.00;99385.84;5021839;28;10121;-68
2023/10/28 08:10:26;;;;;;;;;3.75;2.50;;;;;10.76;100.00;99380.22;5024484;28;9965;-68
2023/10/28 08:12:54;;;;;;;;;7.00;3.00;;;;;10.81;100.00;99376.81;5028605;28;9857;-68
2023/10/28 08:15:21;;;;;;;;;4.25;4.25;;;;;10.77;100.00;99389.09;5029417;28;9922;-69
2023/10/28 08:17:48;;;;;;;;;5.00;5.00;;;;;10.71;100.00;99381.97;5027674;28;10076;-69
2023/10/28 08:20:20;;;;;;;;;3.25;3.00;;;;;10.74;100.00;99389.59;5031387;28;10022;-69
2023/10/28 08:22:47;;;;;;;;;4.00;4.00;;;;;10.79;100.00;99392.41;5029616;28;10157;-69
2023/10/28 08:25:17;;;;;;;;;3.00;3.00;;;;;10.84;100.00;99395.22;5011863;28;9946;-69
2023/10/28 08:27:47;;;;;;;;;8.00;5.25;;;;;10.90;100.00;99391.59;5044054;28;9943;-69
2023/10/28 08:30:16;;;;;;;;;4.75;4.50;;;;;10.87;100.00;99392.88;5032795;28;10130;-68
2023/10/28 08:32:44;;;;;;;;;5.00;4.00;;;;;10.92;100.00;99389.47;5018580;28;10684;-67
2023/10/28 08:35:11;;;;;;;;;5.50;3.50;;;;;10.93;100.00;99387.59;5027561;28;9949;-68
2023/10/28 08:37:38;;;;;;;;;3.25;3.00;;;;;10.89;100.00;99389.94;5008649;28;9931;-68
2023/10/28 08:40:10;;;;;;;;;3.50;3.50;;;;;10.92;100.00;99394.06;5026699;28;9938;-68
2023/10/28 08:42:37;;;;;;;;;3.25;3.00;;;;;10.96;100.00;99395.22;5034450;28;10035;-68
2023/10/28 08:45:05;;;;;;;;;5.00;3.75;;;;;10.94;100.00;99402.69;5031614;28;9910;-68
2023/10/28 08:47:34;;;;;;;;;4.50;4.00;;;;;10.94;100.00;99395.47;5028395;28;9855;-69
2023/10/28 08:50:06;;;;;;;;;3.00;3.00;;;;;10.96;100.00;99392.53;5039372;28;9986;-69
2023/10/28 08:52:36;;;;;;;;;6.00;6.00;;;;;10.99;100.00;99394.78;5026250;28;9810;-68
2023/10/28 08:55:04;;;;;;;;;4.00;3.50;;;;;11.00;100.00;99402.59;5031411;28;9763;-68
2023/10/28 08:57:34;;;;;;;;;2.75;2.75;;;;;11.01;100.00;99395.34;5028552;28;9839;-68
2023/10/28 09:00:06;;;;;;;;;2.75;2.75;;;;;11.03;100.00;99387.88;5029093;28;9905;-68
2023/10/28 09:02:33;;;;;;;;;6.00;3.00;;;;;11.05;100.00;99404.59;5025762;28;9648;-68
2023/10/28 09:05:00;;;;;;;;;6.50;4.00;;;;;11.02;100.00;99396.97;5032311;28;9933;-69
2023/10/28 09:07:27;;;;;;;;;3.25;3.25;;;;;11.07;100.00;99400.63;5032880;28;9796;-69
2023/10/28 09:09:58;;;;;;;;;5.50;4.75;;;;;11.08;100.00;99396.88;5029685;28;9965;-68
2023/10/28 09:12:25;;;;;;;;;6.25;4.50;;;;;11.11;100.00;99409.06;5026795;28;9972;-68
2023/10/28 09:14:51;;;;;;;;;6.00;2.75;;;;;11.19;100.00;99413.28;5025226;28;9940;-69
2023/10/28 09:17:20;;;;;;;;;3.00;3.00;;;;;11.21;100.00;99420.06;5026290;28;9999;-68
2023/10/28 09:19:47;;;;;;;;;4.50;3.75;;;;;11.16;100.00;99414.56;5028580;28;10664;-69
2023/10/28 09:22:14;;;;;;;;;4.25;2.75;;;;;11.13;100.00;99404.25;5032052;28;10075;-69
2023/10/28 09:24:46;;;;;;;;;4.50;4.50;;;;;11.20;100.00;99423.81;5036780;28;9805;-68
2023/10/28 09:27:16;;;;;;;;;2.50;2.50;;;;;11.20;100.00;99414.94;5021088;28;9760;-69
2023/10/28 09:29:43;;;;;;;;;6.00;6.00;;;;;11.21;100.00;99417.38;5024048;28;10437;-68
2023/10/28 09:32:10;;;;;;;;;6.75;4.00;;;;;11.25;100.00;99418.56;5030665;28;9847;-71
2023/10/28 09:34:40;;;;;;;;;2.75;2.75;;;;;11.30;100.00;99416.00;5031698;28;9858;-68
2023/10/28 09:37:08;;;;;;;;;8.00;6.25;;;;;11.32;100.00;99415.75;5020544;28;9674;-68
2023/10/28 09:39:36;;;;;;;;;3.50;3.50;;;;;11.34;100.00;99419.00;5035172;28;9798;-68
2023/10/28 09:42:04;;;;;;;;;4.25;4.25;;;;;11.30;100.00;99416.00;5034028;28;9764;-69
2023/10/28 09:44:34;;;;;;;;;4.00;3.00;;;;;11.30;100.00;99415.16;5027071;28;9758;-67
2023/10/28 09:47:05;;;;;;;;;2.75;2.75;;;;;11.31;100.00;99417.63;5033391;28;9743;-68
2023/10/28 09:49:32;;;;;;;;;6.75;4.75;;;;;11.32;100.00;99424.66;5027944;28;9704;-68
2023/10/28 09:52:05;;;;;;;;;7.25;6.75;;;;;11.26;100.00;99419.38;5029705;28;10671;-69
2023/10/28 09:54:35;;;;;;;;;4.00;3.00;;;;;11.24;100.00;99416.09;5028386;28;9917;-69
2023/10/28 09:57:02;;;;;;;;;2.50;2.50;;;;;11.30;100.00;99428.63;5027124;28;9829;-69
2023/10/28 09:59:33;;;;;;;;;6.75;6.00;;;;;11.34;100.00;99432.50;5018480;28;9717;-68
2023/10/28 10:02:34;;;;;;;;;2.75;2.75;;;;;11.37;100.00;99426.63;5024065;28;9840;-69
2023/10/28 10:05:10;;;;;;;;;3.00;3.00;;;;;11.35;100.00;99431.47;5024755;28;9758;-69
2023/10/28 10:07:38;;;;;;;;;4.25;3.00;;;;;11.39;100.00;99435.31;5029156;28;10489;-68
2023/10/28 10:10:10;;;;;;;;;6.25;5.00;;;;;11.38;100.00;99428.28;5061570;23;9845;-70
2023/10/28 10:12:36;;;;;;;;;5.00;2.25;;;;;11.38;100.00;99428.28;5038692;28;9865;-69
2023/10/28 10:15:03;;;;;;;;;3.00;2.50;;;;;11.43;100.00;99441.88;5033023;28;9536;-69
2023/10/28 10:17:58;;;;;;;;;5.00;4.25;;;;;11.43;100.00;99433.81;5030077;28;9690;-68
2023/10/28 10:20:25;;;;;;;;;2.50;2.50;;;;;11.45;100.00;99434.38;5034644;28;9723;-68
2023/10/28 10:23:02;;;;;;;;;3.00;3.00;;;;;11.45;100.00;99439.75;5048575;28;10371;-69
2023/10/28 10:25:43;;;;;;;;;5.75;5.00;;;;;11.48;100.00;99443.88;5014499;28;9691;-69
2023/10/28 10:28:12;;;;;;;;;2.25;2.25;;;;;11.45;100.00;99438.94;5014820;28;9803;-70
2023/10/28 10:30:40;;;;;;;;;4.00;4.00;;;;;11.47;100.00;99437.66;5027850;28;9540;-69
2023/10/28 10:33:10;;;;;;;;;6.25;4.00;;;;;11.47;100.00;99431.47;5028134;28;10459;-69
2023/10/28 10:35:38;;;;;;;;;6.75;4.00;;;;;11.50;100.00;99449.84;5019695;28;9668;-69
2023/10/28 10:38:07;;;;;;;;;4.00;4.00;;;;;11.48;100.00;99441.19;5015867;28;9856;-69
2023/10/28 10:40:47;;;;;;;;;4.00;4.00;;;;;11.46;100.00;99446.78;5009427;28;9721;-69
2023/10/28 10:43:19;;;;;;;;;4.75;4.75;;;;;11.55;100.00;99439.19;5012501;28;9736;-69
2023/10/28 10:45:50;;;;;;;;;4.00;4.00;;;;;11.53;100.00;99449.38;5012666;28;9581;-69
2023/10/28 10:48:18;;;;;;;;;6.25;4.25;;;;;11.58;100.00;99446.78;5018429;28;10372;-69
2023/10/28 10:50:45;;;;;;;;;8.50;7.25;;;;;11.56;100.00;99451.59;5015270;28;9598;-69
2023/10/28 10:53:12;;;;;;;;;6.75;6.50;;;;;11.53;100.00;99449.38;5004162;28;10425;-68
2023/10/28 10:55:40;;;;;;;;;3.00;3.00;;;;;11.60;100.00;99444.69;5015665;28;9686;-69
2023/10/28 10:58:07;;;;;;;;;4.00;4.00;;;;;11.67;99.90;99444.53;5018139;28;9669;-69
2023/10/28 11:00:34;;;;;;;;;4.50;4.50;;;;;11.64;99.46;99445.84;5000498;28;9679;-70
2023/10/28 11:03:03;;;;;;;;;6.25;5.00;;;;;11.69;99.41;99447.84;5005260;28;9708;-69
2023/10/28 11:05:31;;;;;;;;;8.50;7.75;;;;;11.61;99.54;99446.31;4983433;28;9688;-69
2023/10/28 11:07:57;;;;;;;;;7.75;7.75;;;;;11.64;98.99;99443.97;5022386;28;10451;-69
2023/10/28 11:10:25;;;;;;;;;7.25;6.50;;;;;11.68;98.83;99443.50;5011099;28;9763;-69
2023/10/28 11:12:52;;;;;;;;;7.00;3.00;;;;;11.72;98.99;99445.50;5024261;28;9671;-68
2023/10/28 11:15:22;;;;;;;;;6.50;5.25;;;;;11.66;98.94;99451.81;5010414;28;9966;-69
2023/10/28 11:17:50;;;;;;;;;7.25;4.75;;;;;11.69;98.43;99450.53;5024937;28;9788;-68
2023/10/28 11:20:19;;;;;;;;;4.50;3.00;;;;;11.74;98.48;99448.75;5010101;28;9865;-68
2023/10/28 11:22:46;;;;;;;;;7.00;7.00;;;;;11.80;98.54;99450.53;5028046;28;9622;-68
2023/10/28 11:25:13;;;;;;;;;5.00;5.00;;;;;11.85;98.42;99442.56;5026424;28;9652;-69
2023/10/28 11:27:39;;;;;;;;;6.00;6.00;;;;;11.97;98.12;99439.88;5009930;28;9678;-69